createdAt,value
2024-01-25T00:01:20.440Z,1.90
2024-01-25T00:04:05.632Z,1.90
2024-01-25T00:06:50.726Z,1.90
2024-01-25T00:09:37.049Z,1.90
2024-01-25T00:17:45.790Z,1.90
2024-01-25T00:20:31.595Z,1.90
2024-01-25T00:23:16.471Z,1.90
2024-01-25T00:26:01.680Z,1.90
2024-01-25T00:28:46.715Z,1.90
2024-01-25T00:34:12.445Z,1.90
2024-01-25T00:36:58.394Z,2.00
2024-01-25T00:39:44.030Z,2.00
2024-01-25T00:42:29.772Z,2.00
2024-01-25T00:45:16.911Z,2.00
2024-01-25T00:50:41.693Z,2.00
2024-01-25T00:53:27.712Z,2.00
2024-01-25T00:56:13.213Z,2.00
2024-01-25T00:58:58.972Z,2.00
2024-01-25T01:01:48.439Z,2.00
2024-01-25T01:12:56.068Z,2.10
2024-01-25T01:15:41.539Z,2.10
2024-01-25T01:18:26.892Z,2.10
2024-01-25T01:21:12.308Z,2.10
2024-01-25T01:23:57.284Z,2.10
2024-01-25T01:26:42.424Z,2.10
2024-01-25T01:34:50.270Z,2.20
2024-01-25T01:37:35.923Z,2.20
2024-01-25T01:40:21.189Z,2.20
2024-01-25T01:43:06.576Z,2.30
2024-01-25T01:45:52.056Z,2.30
2024-01-25T01:48:39.650Z,2.30
2024-01-25T01:57:09.072Z,2.30
2024-01-25T01:59:54.127Z,2.30
2024-01-25T02:02:39.332Z,2.30
2024-01-25T02:05:24.526Z,2.40
2024-01-25T02:08:10.100Z,2.30
2024-01-25T02:19:04.086Z,2.40
2024-01-25T02:21:51.909Z,2.40
2024-01-25T02:24:37.159Z,2.40
2024-01-25T02:27:22.322Z,2.40
2024-01-25T02:30:08.114Z,2.50
2024-01-25T02:32:53.209Z,2.50
2024-01-25T02:41:01.194Z,2.50
2024-01-25T02:43:46.858Z,2.50
2024-01-25T02:46:32.130Z,2.50
2024-01-25T02:49:17.384Z,2.50
2024-01-25T02:52:03.113Z,2.60
2024-01-25T02:54:47.980Z,2.60
2024-01-25T03:02:55.173Z,2.60
2024-01-25T03:05:40.768Z,2.60
2024-01-25T03:08:25.864Z,2.60
2024-01-25T03:11:10.873Z,2.60
2024-01-25T03:13:55.919Z,2.60
2024-01-25T03:25:04.164Z,2.70
2024-01-25T03:27:49.466Z,2.70
2024-01-25T03:30:35.784Z,2.70
2024-01-25T03:33:20.853Z,2.70
2024-01-25T03:36:06.808Z,2.70
2024-01-25T03:47:15.482Z,2.70
2024-01-25T03:50:01.173Z,2.80
2024-01-25T03:52:46.512Z,2.80
2024-01-25T03:55:34.323Z,2.80
2024-01-25T03:58:19.313Z,2.80
2024-01-25T04:09:47.974Z,2.80
2024-01-25T04:12:33.421Z,2.80
2024-01-25T04:15:18.434Z,2.80
2024-01-25T04:18:03.992Z,2.80
2024-01-25T04:20:49.423Z,2.80
2024-01-25T04:23:35.005Z,2.90
2024-01-25T04:31:46.250Z,2.90
2024-01-25T04:34:34.235Z,2.90
2024-01-25T04:37:19.512Z,3.00
2024-01-25T04:40:06.352Z,2.90
2024-01-25T04:42:53.847Z,2.90
2024-01-25T04:54:00.639Z,3.00
2024-01-25T04:56:48.771Z,3.00
2024-01-25T04:59:34.368Z,2.90
2024-01-25T05:02:19.591Z,3.00
2024-01-25T05:05:05.147Z,3.00
2024-01-25T05:16:12.400Z,3.00
2024-01-25T05:18:57.839Z,3.00
2024-01-25T05:21:43.726Z,3.00
2024-01-25T05:24:29.017Z,3.00
2024-01-25T05:27:13.906Z,3.00
2024-01-25T05:29:59.010Z,3.00
2024-01-25T05:40:31.873Z,3.10
2024-01-25T05:43:20.312Z,3.10
2024-01-25T05:46:05.548Z,3.10
2024-01-25T05:48:50.790Z,3.10
2024-01-25T05:51:36.595Z,3.10
2024-01-25T06:02:38.134Z,3.10
2024-01-25T06:05:24.719Z,3.10
2024-01-25T06:08:09.997Z,3.10
2024-01-25T06:10:55.332Z,3.10
2024-01-25T06:13:40.600Z,3.10
2024-01-25T06:22:14.673Z,3.20
2024-01-25T06:25:00.013Z,3.10
2024-01-25T06:27:44.998Z,3.20
2024-01-25T06:30:30.232Z,3.20
2024-01-25T06:33:15.257Z,3.20
2024-01-25T06:36:00.835Z,3.20
2024-01-25T06:44:08.656Z,3.30
2024-01-25T06:46:54.027Z,3.30
2024-01-25T06:49:39.456Z,3.20
2024-01-25T06:52:25.594Z,3.30
2024-01-25T06:55:14.285Z,3.30
2024-01-25T07:06:40.258Z,3.40
2024-01-25T07:09:25.576Z,3.40
2024-01-25T07:12:11.030Z,3.40
2024-01-25T07:14:56.637Z,3.40
2024-01-25T07:17:41.664Z,3.50
2024-01-25T07:20:27.102Z,3.50
2024-01-25T07:28:49.729Z,3.50
2024-01-25T07:31:36.364Z,3.50
2024-01-25T07:34:21.701Z,3.50
2024-01-25T07:37:07.347Z,3.50
2024-01-25T07:39:52.551Z,3.50
2024-01-25T07:42:37.689Z,3.50
2024-01-25T07:50:48.973Z,3.60
2024-01-25T07:53:33.939Z,3.70
2024-01-25T07:56:19.055Z,3.80
2024-01-25T07:59:04.468Z,3.80
2024-01-25T08:01:49.891Z,3.90
2024-01-25T08:04:35.306Z,3.90
2024-01-25T08:12:51.431Z,3.90
2024-01-25T08:15:44.113Z,4.00
2024-01-25T08:18:29.366Z,4.00
2024-01-25T08:21:16.381Z,4.00
2024-01-25T08:24:01.842Z,4.00
2024-01-25T08:35:10.825Z,4.10
2024-01-25T08:37:58.904Z,4.20
2024-01-25T08:40:47.141Z,4.20
2024-01-25T08:43:32.318Z,4.30
2024-01-25T08:46:17.650Z,4.30
2024-01-25T08:49:02.900Z,4.30
2024-01-25T08:57:11.101Z,4.40
2024-01-25T08:59:56.581Z,4.40
2024-01-25T09:02:41.777Z,4.50
2024-01-25T09:05:27.107Z,4.50
2024-01-25T09:08:16.155Z,4.50
2024-01-25T09:11:04.535Z,4.50
2024-01-25T09:19:16.609Z,4.50
2024-01-25T09:22:03.491Z,4.50
2024-01-25T09:24:49.086Z,4.60
2024-01-25T09:27:34.480Z,4.60
2024-01-25T09:30:19.621Z,4.60
2024-01-25T09:40:54.438Z,4.60
2024-01-25T09:43:40.803Z,4.70
2024-01-25T09:46:26.955Z,4.80
2024-01-25T09:49:13.199Z,4.80
2024-01-25T09:52:03.239Z,4.90
2024-01-25T09:57:36.885Z,5.00
2024-01-25T10:00:23.135Z,5.00
2024-01-25T10:03:10.822Z,5.00
2024-01-25T10:05:56.093Z,5.10
2024-01-25T10:08:41.840Z,5.20
2024-01-25T10:11:32.655Z,5.20
2024-01-25T10:19:44.783Z,5.20
2024-01-25T10:22:32.411Z,5.20
2024-01-25T10:25:18.015Z,5.20
2024-01-25T10:28:08.031Z,5.20
2024-01-25T10:31:05.666Z,5.20
2024-01-25T10:33:58.374Z,5.30
2024-01-25T10:42:09.904Z,5.40
2024-01-25T10:44:59.216Z,5.50
2024-01-25T10:47:57.822Z,5.50
2024-01-25T10:50:43.306Z,5.60
2024-01-25T10:53:35.005Z,5.60
2024-01-25T11:03:50.848Z,5.70
2024-01-25T11:06:37.530Z,5.70
2024-01-25T11:09:24.803Z,5.70
2024-01-25T11:12:13.951Z,5.80
2024-01-25T11:14:59.030Z,5.90
2024-01-25T11:17:55.087Z,5.90
2024-01-25T11:26:18.996Z,5.80
2024-01-25T11:29:03.999Z,5.70
2024-01-25T11:31:51.498Z,5.60
2024-01-25T11:34:36.833Z,5.70
2024-01-25T11:37:23.436Z,5.60
2024-01-25T11:48:32.227Z,5.60
2024-01-25T11:51:17.746Z,5.60
2024-01-25T11:54:02.778Z,5.60
2024-01-25T11:56:48.233Z,5.60
2024-01-25T11:59:34.376Z,5.70
2024-01-25T12:04:58.597Z,5.70
2024-01-25T12:07:44.055Z,5.80
2024-01-25T12:10:28.903Z,5.80
2024-01-25T12:13:14.179Z,5.80
2024-01-25T12:15:59.002Z,5.90
2024-01-25T12:18:45.441Z,5.80
2024-01-25T12:26:59.541Z,5.70
2024-01-25T12:29:44.332Z,5.60
2024-01-25T12:32:29.337Z,5.60
2024-01-25T12:35:14.557Z,5.50
2024-01-25T12:37:59.543Z,5.50
2024-01-25T12:48:55.808Z,5.30
2024-01-25T12:51:41.258Z,5.30
2024-01-25T12:54:27.284Z,5.20
2024-01-25T12:57:12.192Z,5.20
2024-01-25T12:59:57.415Z,5.20
2024-01-25T13:09:26.344Z,5.10
2024-01-25T13:12:11.401Z,5.10
2024-01-25T13:15:02.794Z,5.00
2024-01-25T13:17:47.888Z,5.00
2024-01-25T13:20:33.023Z,4.90
2024-01-25T13:31:19.070Z,4.80
2024-01-25T13:34:04.547Z,4.70
2024-01-25T13:36:49.735Z,4.70
2024-01-25T13:39:35.183Z,4.70
2024-01-25T13:42:20.277Z,4.70
2024-01-25T13:53:25.270Z,4.60
2024-01-25T13:56:10.574Z,4.50
2024-01-25T13:58:55.704Z,4.50
2024-01-25T14:01:40.616Z,4.50
2024-01-25T14:04:25.829Z,4.50
2024-01-25T14:15:35.647Z,4.40
2024-01-25T14:18:21.501Z,4.30
2024-01-25T14:21:06.492Z,4.30
2024-01-25T14:23:51.944Z,4.30
2024-01-25T14:26:37.134Z,4.30
2024-01-25T14:29:23.586Z,4.20
2024-01-25T14:37:28.890Z,4.20
2024-01-25T14:40:24.459Z,4.10
2024-01-25T14:43:18.674Z,4.10
2024-01-25T14:46:03.950Z,4.10
2024-01-25T14:48:48.995Z,4.10
2024-01-25T14:59:54.977Z,4.00
2024-01-25T15:02:39.797Z,4.00
2024-01-25T15:05:26.860Z,3.90
2024-01-25T15:08:14.595Z,3.90
2024-01-25T15:10:59.618Z,3.90
2024-01-25T15:22:08.230Z,3.80
2024-01-25T15:24:53.912Z,3.80
2024-01-25T15:27:39.711Z,3.80
2024-01-25T15:30:24.838Z,3.80
2024-01-25T15:33:12.967Z,3.80
2024-01-25T15:35:58.036Z,3.80
2024-01-25T15:44:15.185Z,3.70
2024-01-25T15:47:20.209Z,3.80
2024-01-25T15:50:19.273Z,3.80
2024-01-25T15:53:20.997Z,3.80
2024-01-25T15:56:06.772Z,3.80
2024-01-25T16:06:39.516Z,3.70
2024-01-25T16:09:24.743Z,3.80
2024-01-25T16:12:12.053Z,3.80
2024-01-25T16:15:03.466Z,3.80
2024-01-25T16:17:48.859Z,3.80
2024-01-25T16:20:34.469Z,3.80
2024-01-25T16:29:01.588Z,3.70
2024-01-25T16:31:49.900Z,3.70
2024-01-25T16:34:34.908Z,3.70
2024-01-25T16:37:20.323Z,3.70
2024-01-25T16:40:06.770Z,3.70
2024-01-25T16:42:54.486Z,3.70
2024-01-25T16:50:57.253Z,3.70
2024-01-25T16:53:45.917Z,3.60
2024-01-25T16:56:34.420Z,3.60
2024-01-25T16:59:19.623Z,3.60
2024-01-25T17:02:10.631Z,3.60
2024-01-25T17:04:58.202Z,3.60
2024-01-25T17:13:09.460Z,3.60
2024-01-25T17:15:54.814Z,3.60
2024-01-25T17:18:42.780Z,3.50
2024-01-25T17:21:29.373Z,3.60
2024-01-25T17:24:14.308Z,3.60
2024-01-25T17:35:46.442Z,3.50
2024-01-25T17:38:32.744Z,3.50
2024-01-25T17:41:18.142Z,3.50
2024-01-25T17:44:03.875Z,3.50
2024-01-25T17:46:54.978Z,3.50
2024-01-25T17:49:41.706Z,3.50
2024-01-25T17:57:55.367Z,3.50
2024-01-25T18:00:41.073Z,3.50
2024-01-25T18:03:26.362Z,3.50
2024-01-25T18:06:11.621Z,3.60
2024-01-25T18:08:56.872Z,3.50
2024-01-25T18:20:08.005Z,3.50
2024-01-25T18:22:53.339Z,3.60
2024-01-25T18:25:39.101Z,3.50
2024-01-25T18:28:24.288Z,3.50
2024-01-25T18:31:14.680Z,3.50
2024-01-25T18:36:49.176Z,3.50
2024-01-25T18:39:37.689Z,3.50
2024-01-25T18:42:23.310Z,3.50
2024-01-25T18:45:09.522Z,3.50
2024-01-25T18:47:54.867Z,3.50
2024-01-25T18:56:28.400Z,3.50
2024-01-25T18:59:13.989Z,3.50
2024-01-25T19:01:59.602Z,3.50
2024-01-25T19:04:45.330Z,3.50
2024-01-25T19:07:30.980Z,3.50
2024-01-25T19:18:39.045Z,3.50
2024-01-25T19:21:24.302Z,3.50
2024-01-25T19:24:10.432Z,3.50
2024-01-25T19:26:55.823Z,3.50
2024-01-25T19:29:40.892Z,3.50
2024-01-25T19:40:47.037Z,3.40
2024-01-25T19:43:32.492Z,3.40
2024-01-25T19:46:17.666Z,3.40
2024-01-25T19:49:02.894Z,3.40
2024-01-25T19:51:47.903Z,3.30
2024-01-25T19:54:33.276Z,3.30
2024-01-25T20:02:44.051Z,3.30
2024-01-25T20:05:31.085Z,3.20
2024-01-25T20:08:16.670Z,3.20
2024-01-25T20:11:01.630Z,3.20
2024-01-25T20:13:47.435Z,3.20
2024-01-25T20:20:33.809Z,3.20
2024-01-25T20:23:23.736Z,3.20
2024-01-25T20:26:08.815Z,3.20
2024-01-25T20:28:53.850Z,3.10
2024-01-25T20:31:39.027Z,3.20
2024-01-25T20:42:36.082Z,3.10
2024-01-25T20:45:21.381Z,3.10
2024-01-25T20:48:06.972Z,3.10
2024-01-25T20:50:57.937Z,3.10
2024-01-25T20:53:50.928Z,3.00
2024-01-25T21:04:48.190Z,3.00
2024-01-25T21:07:33.732Z,3.10
2024-01-25T21:10:19.628Z,3.00
2024-01-25T21:13:05.619Z,3.00
2024-01-25T21:15:50.789Z,3.00
2024-01-25T21:26:59.910Z,2.90
2024-01-25T21:29:45.063Z,2.90
2024-01-25T21:32:30.330Z,2.90
2024-01-25T21:35:15.676Z,2.90
2024-01-25T21:38:01.140Z,2.90
2024-01-25T21:48:41.103Z,2.90
2024-01-25T21:51:26.666Z,2.80
2024-01-25T21:54:15.197Z,2.90
2024-01-25T21:57:00.298Z,2.80
2024-01-25T21:59:45.438Z,2.80
2024-01-25T22:02:30.873Z,2.80
2024-01-25T22:10:22.121Z,2.80
2024-01-25T22:13:07.464Z,2.80
2024-01-25T22:15:55.177Z,2.70
2024-01-25T22:18:40.175Z,2.70
2024-01-25T22:21:25.356Z,2.70
2024-01-25T22:32:04.025Z,2.60
2024-01-25T22:34:49.315Z,2.60
2024-01-25T22:37:34.283Z,2.50
2024-01-25T22:40:19.457Z,2.50
2024-01-25T22:43:04.441Z,2.50
2024-01-25T22:45:59.163Z,2.50
2024-01-25T22:54:26.439Z,2.40
2024-01-25T22:57:12.475Z,2.40
2024-01-25T22:59:57.926Z,2.30
2024-01-25T23:02:42.892Z,2.40
2024-01-25T23:05:27.849Z,2.40
2024-01-25T23:08:13.145Z,2.30
2024-01-25T23:16:22.355Z,2.30
2024-01-25T23:19:08.108Z,2.30
2024-01-25T23:21:53.390Z,2.30
2024-01-25T23:24:38.426Z,2.30
2024-01-25T23:27:23.713Z,2.30
2024-01-25T23:30:09.786Z,2.30
2024-01-25T23:38:33.706Z,2.20
2024-01-25T23:41:19.277Z,2.30
2024-01-25T23:44:04.673Z,2.20
2024-01-25T23:46:49.694Z,2.20
2024-01-25T23:49:34.828Z,2.20
